sensor_id;sensor_type;location;lat;lon;timestamp;P1;durP1;ratioP1;P2;durP2;ratioP2
49840;SDS011;35738;49.890;5.930;2023-08-08T00:01:19;3.13;;;2.00;;
49840;SDS011;35738;49.890;5.930;2023-08-08T00:03:45;5.07;;;2.40;;
49840;SDS011;35738;49.890;5.930;2023-08-08T00:06:12;2.88;;;2.10;;
49840;SDS011;35738;49.890;5.930;2023-08-08T00:08:39;3.13;;;2.20;;
49840;SDS011;35738;49.890;5.930;2023-08-08T00:11:05;2.97;;;2.20;;
49840;SDS011;35738;49.890;5.930;2023-08-08T00:13:32;3.95;;;2.20;;
49840;SDS011;35738;49.890;5.930;2023-08-08T00:15:58;2.90;;;2.10;;
49840;SDS011;35738;49.890;5.930;2023-08-08T00:18:25;2.78;;;2.17;;
49840;SDS011;35738;49.890;5.930;2023-08-08T00:20:52;3.60;;;2.25;;
49840;SDS011;35738;49.890;5.930;2023-08-08T00:23:18;2.80;;;2.10;;
49840;SDS011;35738;49.890;5.930;2023-08-08T00:25:44;3.50;;;2.30;;
49840;SDS011;35738;49.890;5.930;2023-08-08T00:28:16;4.28;;;2.13;;
49840;SDS011;35738;49.890;5.930;2023-08-08T00:30:43;3.30;;;1.90;;
49840;SDS011;35738;49.890;5.930;2023-08-08T00:33:10;3.20;;;2.33;;
49840;SDS011;35738;49.890;5.930;2023-08-08T00:35:36;3.05;;;2.00;;
49840;SDS011;35738;49.890;5.930;2023-08-08T00:38:03;2.30;;;2.10;;
49840;SDS011;35738;49.890;5.930;2023-08-08T00:40:33;3.50;;;2.28;;
49840;SDS011;35738;49.890;5.930;2023-08-08T00:43:01;2.88;;;2.45;;
49840;SDS011;35738;49.890;5.930;2023-08-08T00:45:27;3.50;;;2.50;;
49840;SDS011;35738;49.890;5.930;2023-08-08T00:47:54;3.67;;;2.20;;
49840;SDS011;35738;49.890;5.930;2023-08-08T00:50:21;2.67;;;2.25;;
49840;SDS011;35738;49.890;5.930;2023-08-08T00:52:48;3.08;;;2.10;;
49840;SDS011;35738;49.890;5.930;2023-08-08T00:55:15;2.75;;;2.50;;
49840;SDS011;35738;49.890;5.930;2023-08-08T00:57:41;3.25;;;2.50;;
49840;SDS011;35738;49.890;5.930;2023-08-08T01:00:09;3.28;;;2.35;;
49840;SDS011;35738;49.890;5.930;2023-08-08T01:02:36;3.25;;;2.40;;
49840;SDS011;35738;49.890;5.930;2023-08-08T01:05:03;4.35;;;2.50;;
49840;SDS011;35738;49.890;5.930;2023-08-08T01:10:34;4.18;;;2.38;;
49840;SDS011;35738;49.890;5.930;2023-08-08T01:13:11;2.97;;;2.30;;
49840;SDS011;35738;49.890;5.930;2023-08-08T01:15:42;3.22;;;2.50;;
49840;SDS011;35738;49.890;5.930;2023-08-08T01:18:11;5.50;;;2.80;;
49840;SDS011;35738;49.890;5.930;2023-08-08T01:20:40;5.00;;;2.40;;
49840;SDS011;35738;49.890;5.930;2023-08-08T01:25:35;5.32;;;2.50;;
49840;SDS011;35738;49.890;5.930;2023-08-08T01:28:03;2.75;;;2.50;;
49840;SDS011;35738;49.890;5.930;2023-08-08T01:30:30;2.83;;;2.63;;
49840;SDS011;35738;49.890;5.930;2023-08-08T01:32:57;5.25;;;2.83;;
49840;SDS011;35738;49.890;5.930;2023-08-08T01:35:23;7.53;;;2.88;;
49840;SDS011;35738;49.890;5.930;2023-08-08T01:37:57;5.40;;;3.15;;
49840;SDS011;35738;49.890;5.930;2023-08-08T01:40:36;5.50;;;2.80;;
49840;SDS011;35738;49.890;5.930;2023-08-08T01:43:05;4.53;;;2.78;;
49840;SDS011;35738;49.890;5.930;2023-08-08T01:45:33;2.88;;;2.63;;
49840;SDS011;35738;49.890;5.930;2023-08-08T01:47:59;3.10;;;2.50;;
49840;SDS011;35738;49.890;5.930;2023-08-08T01:50:26;6.20;;;2.72;;
49840;SDS011;35738;49.890;5.930;2023-08-08T01:52:52;3.60;;;2.90;;
49840;SDS011;35738;49.890;5.930;2023-08-08T01:55:19;3.88;;;2.70;;
49840;SDS011;35738;49.890;5.930;2023-08-08T01:57:46;5.18;;;2.42;;
49840;SDS011;35738;49.890;5.930;2023-08-08T02:00:12;4.55;;;2.28;;
49840;SDS011;35738;49.890;5.930;2023-08-08T02:02:39;3.22;;;2.70;;
49840;SDS011;35738;49.890;5.930;2023-08-08T02:05:06;5.22;;;2.65;;
49840;SDS011;35738;49.890;5.930;2023-08-08T02:07:33;6.10;;;2.58;;
49840;SDS011;35738;49.890;5.930;2023-08-08T02:09:59;7.00;;;3.10;;
49840;SDS011;35738;49.890;5.930;2023-08-08T02:12:26;4.68;;;2.70;;
49840;SDS011;35738;49.890;5.930;2023-08-08T02:14:54;2.90;;;2.60;;
49840;SDS011;35738;49.890;5.930;2023-08-08T02:17:21;4.88;;;2.80;;
49840;SDS011;35738;49.890;5.930;2023-08-08T02:19:48;3.28;;;2.72;;
49840;SDS011;35738;49.890;5.930;2023-08-08T02:22:14;4.90;;;2.85;;
49840;SDS011;35738;49.890;5.930;2023-08-08T02:24:41;6.45;;;2.70;;
49840;SDS011;35738;49.890;5.930;2023-08-08T02:27:07;4.82;;;2.75;;
49840;SDS011;35738;49.890;5.930;2023-08-08T02:29:34;4.63;;;2.60;;
49840;SDS011;35738;49.890;5.930;2023-08-08T02:32:01;5.43;;;3.10;;
49840;SDS011;35738;49.890;5.930;2023-08-08T02:34:28;5.03;;;2.80;;
49840;SDS011;35738;49.890;5.930;2023-08-08T02:36:54;3.72;;;2.47;;
49840;SDS011;35738;49.890;5.930;2023-08-08T02:39:21;3.03;;;2.80;;
49840;SDS011;35738;49.890;5.930;2023-08-08T02:41:47;5.28;;;3.22;;
49840;SDS011;35738;49.890;5.930;2023-08-08T02:44:14;5.22;;;2.67;;
49840;SDS011;35738;49.890;5.930;2023-08-08T02:46:40;3.03;;;2.60;;
49840;SDS011;35738;49.890;5.930;2023-08-08T02:49:07;3.88;;;2.60;;
49840;SDS011;35738;49.890;5.930;2023-08-08T02:51:33;4.45;;;3.00;;
49840;SDS011;35738;49.890;5.930;2023-08-08T02:54:00;7.28;;;2.78;;
49840;SDS011;35738;49.890;5.930;2023-08-08T02:56:26;5.03;;;2.72;;
49840;SDS011;35738;49.890;5.930;2023-08-08T02:58:53;4.97;;;2.83;;
49840;SDS011;35738;49.890;5.930;2023-08-08T03:01:20;4.65;;;2.85;;
49840;SDS011;35738;49.890;5.930;2023-08-08T03:03:48;4.93;;;2.58;;
49840;SDS011;35738;49.890;5.930;2023-08-08T03:06:14;6.32;;;2.70;;
49840;SDS011;35738;49.890;5.930;2023-08-08T03:08:41;4.90;;;2.60;;
49840;SDS011;35738;49.890;5.930;2023-08-08T03:11:08;6.60;;;2.85;;
49840;SDS011;35738;49.890;5.930;2023-08-08T03:13:34;3.05;;;2.85;;
49840;SDS011;35738;49.890;5.930;2023-08-08T03:16:00;6.30;;;2.92;;
49840;SDS011;35738;49.890;5.930;2023-08-08T03:18:27;5.57;;;3.05;;
49840;SDS011;35738;49.890;5.930;2023-08-08T03:20:54;7.88;;;2.80;;
49840;SDS011;35738;49.890;5.930;2023-08-08T03:23:20;5.38;;;3.00;;
49840;SDS011;35738;49.890;5.930;2023-08-08T03:25:49;8.27;;;3.13;;
49840;SDS011;35738;49.890;5.930;2023-08-08T03:28:15;5.40;;;3.33;;
49840;SDS011;35738;49.890;5.930;2023-08-08T03:30:42;5.05;;;2.90;;
49840;SDS011;35738;49.890;5.930;2023-08-08T03:33:08;3.00;;;2.65;;
49840;SDS011;35738;49.890;5.930;2023-08-08T03:35:35;5.90;;;2.97;;
49840;SDS011;35738;49.890;5.930;2023-08-08T03:38:01;6.85;;;3.53;;
49840;SDS011;35738;49.890;5.930;2023-08-08T03:40:30;4.20;;;2.97;;
49840;SDS011;35738;49.890;5.930;2023-08-08T03:43:00;8.63;;;3.20;;
49840;SDS011;35738;49.890;5.930;2023-08-08T03:45:28;5.00;;;3.17;;
49840;SDS011;35738;49.890;5.930;2023-08-08T03:47:55;8.82;;;3.50;;
49840;SDS011;35738;49.890;5.930;2023-08-08T03:50:21;5.70;;;3.40;;
49840;SDS011;35738;49.890;5.930;2023-08-08T03:52:48;10.52;;;3.13;;
49840;SDS011;35738;49.890;5.930;2023-08-08T03:55:15;7.10;;;3.70;;
49840;SDS011;35738;49.890;5.930;2023-08-08T03:57:41;5.38;;;3.67;;
49840;SDS011;35738;49.890;5.930;2023-08-08T04:00:08;6.28;;;3.40;;
49840;SDS011;35738;49.890;5.930;2023-08-08T04:02:35;6.40;;;3.75;;
49840;SDS011;35738;49.890;5.930;2023-08-08T04:05:01;7.25;;;3.75;;
49840;SDS011;35738;49.890;5.930;2023-08-08T04:07:28;4.30;;;3.53;;
49840;SDS011;35738;49.890;5.930;2023-08-08T04:09:55;7.68;;;3.78;;
49840;SDS011;35738;49.890;5.930;2023-08-08T04:12:22;10.40;;;4.32;;
49840;SDS011;35738;49.890;5.930;2023-08-08T04:14:49;5.82;;;3.78;;
49840;SDS011;35738;49.890;5.930;2023-08-08T04:17:15;9.85;;;4.30;;
49840;SDS011;35738;49.890;5.930;2023-08-08T04:19:42;7.60;;;4.50;;
49840;SDS011;35738;49.890;5.930;2023-08-08T04:22:08;9.00;;;4.40;;
49840;SDS011;35738;49.890;5.930;2023-08-08T04:24:35;11.50;;;4.20;;
49840;SDS011;35738;49.890;5.930;2023-08-08T04:27:02;8.38;;;4.50;;
49840;SDS011;35738;49.890;5.930;2023-08-08T04:29:29;7.20;;;4.30;;
49840;SDS011;35738;49.890;5.930;2023-08-08T04:31:56;12.18;;;4.88;;
49840;SDS011;35738;49.890;5.930;2023-08-08T04:34:23;7.05;;;4.22;;
49840;SDS011;35738;49.890;5.930;2023-08-08T04:36:50;6.75;;;4.45;;
49840;SDS011;35738;49.890;5.930;2023-08-08T04:39:16;13.35;;;4.60;;
49840;SDS011;35738;49.890;5.930;2023-08-08T04:41:42;11.95;;;4.60;;
49840;SDS011;35738;49.890;5.930;2023-08-08T04:44:09;9.05;;;4.45;;
49840;SDS011;35738;49.890;5.930;2023-08-08T04:46:36;5.90;;;4.53;;
49840;SDS011;35738;49.890;5.930;2023-08-08T04:49:02;6.30;;;4.45;;
49840;SDS011;35738;49.890;5.930;2023-08-08T04:51:29;8.85;;;4.55;;
49840;SDS011;35738;49.890;5.930;2023-08-08T04:53:55;13.80;;;4.47;;
49840;SDS011;35738;49.890;5.930;2023-08-08T04:56:22;11.30;;;4.93;;
49840;SDS011;35738;49.890;5.930;2023-08-08T04:58:48;12.38;;;4.65;;
49840;SDS011;35738;49.890;5.930;2023-08-08T05:01:15;12.43;;;4.88;;
49840;SDS011;35738;49.890;5.930;2023-08-08T05:03:44;12.13;;;4.70;;
49840;SDS011;35738;49.890;5.930;2023-08-08T05:06:10;9.45;;;4.90;;
49840;SDS011;35738;49.890;5.930;2023-08-08T05:08:38;7.65;;;4.90;;
49840;SDS011;35738;49.890;5.930;2023-08-08T05:11:04;14.63;;;5.40;;
49840;SDS011;35738;49.890;5.930;2023-08-08T05:13:31;10.15;;;4.95;;
49840;SDS011;35738;49.890;5.930;2023-08-08T05:15:57;10.95;;;5.47;;
49840;SDS011;35738;49.890;5.930;2023-08-08T05:18:24;13.93;;;5.70;;
49840;SDS011;35738;49.890;5.930;2023-08-08T05:20:50;12.52;;;5.72;;
49840;SDS011;35738;49.890;5.930;2023-08-08T05:23:17;11.75;;;5.70;;
49840;SDS011;35738;49.890;5.930;2023-08-08T05:25:43;14.15;;;6.00;;
49840;SDS011;35738;49.890;5.930;2023-08-08T05:28:11;14.32;;;5.80;;
49840;SDS011;35738;49.890;5.930;2023-08-08T05:30:38;14.35;;;5.75;;
49840;SDS011;35738;49.890;5.930;2023-08-08T05:33:04;13.98;;;5.82;;
49840;SDS011;35738;49.890;5.930;2023-08-08T05:35:31;15.20;;;5.65;;
49840;SDS011;35738;49.890;5.930;2023-08-08T05:37:58;12.38;;;5.78;;
49840;SDS011;35738;49.890;5.930;2023-08-08T05:40:24;15.10;;;5.50;;
49840;SDS011;35738;49.890;5.930;2023-08-08T05:42:51;11.90;;;5.30;;
49840;SDS011;35738;49.890;5.930;2023-08-08T05:45:18;12.25;;;5.85;;
49840;SDS011;35738;49.890;5.930;2023-08-08T05:47:44;14.32;;;6.28;;
49840;SDS011;35738;49.890;5.930;2023-08-08T05:50:11;12.18;;;5.82;;
49840;SDS011;35738;49.890;5.930;2023-08-08T05:52:37;14.00;;;6.00;;
49840;SDS011;35738;49.890;5.930;2023-08-08T05:55:04;9.25;;;5.72;;
49840;SDS011;35738;49.890;5.930;2023-08-08T05:57:31;26.65;;;11.93;;
49840;SDS011;35738;49.890;5.930;2023-08-08T05:59:58;15.05;;;5.88;;
49840;SDS011;35738;49.890;5.930;2023-08-08T06:02:27;12.73;;;6.00;;
49840;SDS011;35738;49.890;5.930;2023-08-08T06:04:53;14.13;;;6.28;;
49840;SDS011;35738;49.890;5.930;2023-08-08T06:07:20;17.13;;;6.07;;
49840;SDS011;35738;49.890;5.930;2023-08-08T06:09:46;12.68;;;5.85;;
49840;SDS011;35738;49.890;5.930;2023-08-08T06:12:13;12.93;;;5.53;;
49840;SDS011;35738;49.890;5.930;2023-08-08T06:14:40;23.25;;;13.20;;
49840;SDS011;35738;49.890;5.930;2023-08-08T06:17:06;12.57;;;5.40;;
49840;SDS011;35738;49.890;5.930;2023-08-08T06:19:33;16.65;;;5.53;;
49840;SDS011;35738;49.890;5.930;2023-08-08T06:21:59;15.43;;;5.82;;
49840;SDS011;35738;49.890;5.930;2023-08-08T06:24:26;13.93;;;5.68;;
49840;SDS011;35738;49.890;5.930;2023-08-08T06:26:53;13.88;;;5.95;;
49840;SDS011;35738;49.890;5.930;2023-08-08T06:29:20;14.05;;;6.13;;
49840;SDS011;35738;49.890;5.930;2023-08-08T06:31:47;19.55;;;6.60;;
49840;SDS011;35738;49.890;5.930;2023-08-08T06:34:14;12.85;;;5.95;;
49840;SDS011;35738;49.890;5.930;2023-08-08T06:36:41;14.27;;;5.97;;
49840;SDS011;35738;49.890;5.930;2023-08-08T06:39:07;17.33;;;5.85;;
49840;SDS011;35738;49.890;5.930;2023-08-08T06:41:34;13.00;;;6.35;;
49840;SDS011;35738;49.890;5.930;2023-08-08T06:44:01;11.95;;;6.10;;
49840;SDS011;35738;49.890;5.930;2023-08-08T06:46:27;11.90;;;5.60;;
49840;SDS011;35738;49.890;5.930;2023-08-08T06:48:55;14.50;;;5.60;;
49840;SDS011;35738;49.890;5.930;2023-08-08T06:51:25;8.15;;;5.15;;
49840;SDS011;35738;49.890;5.930;2023-08-08T06:53:52;13.35;;;5.65;;
49840;SDS011;35738;49.890;5.930;2023-08-08T06:56:19;12.43;;;5.95;;
49840;SDS011;35738;49.890;5.930;2023-08-08T06:58:45;9.85;;;5.32;;
49840;SDS011;35738;49.890;5.930;2023-08-08T07:01:12;10.25;;;5.00;;
49840;SDS011;35738;49.890;5.930;2023-08-08T07:03:40;23.75;;;11.73;;
49840;SDS011;35738;49.890;5.930;2023-08-08T07:06:06;14.48;;;6.00;;
49840;SDS011;35738;49.890;5.930;2023-08-08T07:08:33;16.02;;;5.32;;
49840;SDS011;35738;49.890;5.930;2023-08-08T07:10:59;8.98;;;5.40;;
49840;SDS011;35738;49.890;5.930;2023-08-08T07:13:26;9.98;;;5.53;;
49840;SDS011;35738;49.890;5.930;2023-08-08T07:15:52;12.30;;;5.50;;
49840;SDS011;35738;49.890;5.930;2023-08-08T07:18:19;12.00;;;5.00;;
49840;SDS011;35738;49.890;5.930;2023-08-08T07:20:46;10.85;;;5.35;;
49840;SDS011;35738;49.890;5.930;2023-08-08T07:23:12;9.32;;;4.93;;
49840;SDS011;35738;49.890;5.930;2023-08-08T07:25:39;8.48;;;5.38;;
49840;SDS011;35738;49.890;5.930;2023-08-08T07:28:05;12.95;;;5.55;;
49840;SDS011;35738;49.890;5.930;2023-08-08T07:30:32;15.90;;;5.40;;
49840;SDS011;35738;49.890;5.930;2023-08-08T07:32:58;10.73;;;5.30;;
49840;SDS011;35738;49.890;5.930;2023-08-08T07:35:25;10.40;;;4.82;;
49840;SDS011;35738;49.890;5.930;2023-08-08T07:37:52;11.93;;;5.18;;
49840;SDS011;35738;49.890;5.930;2023-08-08T07:40:19;9.82;;;5.05;;
49840;SDS011;35738;49.890;5.930;2023-08-08T07:42:47;10.05;;;5.35;;
49840;SDS011;35738;49.890;5.930;2023-08-08T07:45:14;8.85;;;4.40;;
49840;SDS011;35738;49.890;5.930;2023-08-08T07:47:42;11.15;;;4.63;;
49840;SDS011;35738;49.890;5.930;2023-08-08T07:50:08;9.77;;;4.85;;
49840;SDS011;35738;49.890;5.930;2023-08-08T07:52:35;10.65;;;4.43;;
49840;SDS011;35738;49.890;5.930;2023-08-08T07:55:03;8.90;;;4.47;;
49840;SDS011;35738;49.890;5.930;2023-08-08T07:57:31;7.07;;;4.47;;
49840;SDS011;35738;49.890;5.930;2023-08-08T08:00:04;8.02;;;4.20;;
49840;SDS011;35738;49.890;5.930;2023-08-08T08:02:38;8.98;;;3.45;;
49840;SDS011;35738;49.890;5.930;2023-08-08T08:05:05;9.82;;;4.10;;
49840;SDS011;35738;49.890;5.930;2023-08-08T08:07:34;8.13;;;3.20;;
49840;SDS011;35738;49.890;5.930;2023-08-08T08:10:02;7.70;;;3.30;;
49840;SDS011;35738;49.890;5.930;2023-08-08T08:12:31;6.78;;;3.22;;
49840;SDS011;35738;49.890;5.930;2023-08-08T08:14:58;6.07;;;3.13;;
49840;SDS011;35738;49.890;5.930;2023-08-08T08:17:25;9.90;;;3.38;;
49840;SDS011;35738;49.890;5.930;2023-08-08T08:19:54;4.75;;;3.03;;
49840;SDS011;35738;49.890;5.930;2023-08-08T08:22:21;6.32;;;2.95;;
49840;SDS011;35738;49.890;5.930;2023-08-08T08:24:47;6.13;;;3.13;;
49840;SDS011;35738;49.890;5.930;2023-08-08T08:27:14;5.15;;;2.55;;
49840;SDS011;35738;49.890;5.930;2023-08-08T08:29:41;9.60;;;3.17;;
49840;SDS011;35738;49.890;5.930;2023-08-08T08:32:07;6.43;;;2.90;;
49840;SDS011;35738;49.890;5.930;2023-08-08T08:34:34;6.28;;;3.00;;
49840;SDS011;35738;49.890;5.930;2023-08-08T08:37:00;9.35;;;3.10;;
49840;SDS011;35738;49.890;5.930;2023-08-08T08:39:27;7.32;;;2.83;;
49840;SDS011;35738;49.890;5.930;2023-08-08T08:41:54;5.85;;;2.78;;
49840;SDS011;35738;49.890;5.930;2023-08-08T08:44:30;7.10;;;3.25;;
49840;SDS011;35738;49.890;5.930;2023-08-08T08:46:59;3.90;;;2.90;;
49840;SDS011;35738;49.890;5.930;2023-08-08T08:49:29;5.50;;;2.80;;
49840;SDS011;35738;49.890;5.930;2023-08-08T08:51:57;4.95;;;2.90;;
49840;SDS011;35738;49.890;5.930;2023-08-08T08:54:28;8.27;;;2.80;;
49840;SDS011;35738;49.890;5.930;2023-08-08T08:56:56;7.37;;;3.03;;
49840;SDS011;35738;49.890;5.930;2023-08-08T08:59:24;6.22;;;2.80;;
49840;SDS011;35738;49.890;5.930;2023-08-08T09:01:51;5.05;;;3.42;;
49840;SDS011;35738;49.890;5.930;2023-08-08T09:04:18;5.50;;;2.60;;
49840;SDS011;35738;49.890;5.930;2023-08-08T09:07:33;7.30;;;2.60;;
49840;SDS011;35738;49.890;5.930;2023-08-08T09:10:02;7.53;;;2.45;;
49840;SDS011;35738;49.890;5.930;2023-08-08T09:12:33;3.90;;;2.10;;
49840;SDS011;35738;49.890;5.930;2023-08-08T09:15:01;5.65;;;2.17;;
49840;SDS011;35738;49.890;5.930;2023-08-08T09:17:27;8.07;;;2.13;;
49840;SDS011;35738;49.890;5.930;2023-08-08T09:20:13;5.22;;;1.95;;
49840;SDS011;35738;49.890;5.930;2023-08-08T09:22:40;6.40;;;1.95;;
49840;SDS011;35738;49.890;5.930;2023-08-08T09:25:06;4.35;;;1.90;;
49840;SDS011;35738;49.890;5.930;2023-08-08T09:27:34;3.20;;;1.55;;
49840;SDS011;35738;49.890;5.930;2023-08-08T09:30:01;4.03;;;1.85;;
49840;SDS011;35738;49.890;5.930;2023-08-08T09:32:32;5.30;;;1.85;;
49840;SDS011;35738;49.890;5.930;2023-08-08T09:34:59;3.78;;;1.50;;
49840;SDS011;35738;49.890;5.930;2023-08-08T09:37:26;4.63;;;1.90;;
49840;SDS011;35738;49.890;5.930;2023-08-08T09:39:55;2.70;;;1.38;;
49840;SDS011;35738;49.890;5.930;2023-08-08T09:42:27;4.18;;;1.85;;
49840;SDS011;35738;49.890;5.930;2023-08-08T09:44:54;4.65;;;1.70;;
49840;SDS011;35738;49.890;5.930;2023-08-08T09:47:23;4.18;;;1.75;;
49840;SDS011;35738;49.890;5.930;2023-08-08T09:49:50;3.75;;;1.88;;
49840;SDS011;35738;49.890;5.930;2023-08-08T09:52:17;5.68;;;1.90;;
49840;SDS011;35738;49.890;5.930;2023-08-08T09:54:45;3.45;;;1.50;;
49840;SDS011;35738;49.890;5.930;2023-08-08T09:57:14;1.98;;;1.38;;
49840;SDS011;35738;49.890;5.930;2023-08-08T09:59:40;7.10;;;1.58;;
49840;SDS011;35738;49.890;5.930;2023-08-08T10:02:08;2.55;;;1.50;;
49840;SDS011;35738;49.890;5.930;2023-08-08T10:04:41;2.50;;;1.35;;
49840;SDS011;35738;49.890;5.930;2023-08-08T10:07:08;1.80;;;1.38;;
49840;SDS011;35738;49.890;5.930;2023-08-08T10:09:35;3.70;;;1.88;;
49840;SDS011;35738;49.890;5.930;2023-08-08T10:12:06;2.92;;;1.42;;
49840;SDS011;35738;49.890;5.930;2023-08-08T10:14:35;3.30;;;1.40;;
49840;SDS011;35738;49.890;5.930;2023-08-08T10:17:04;4.28;;;1.38;;
49840;SDS011;35738;49.890;5.930;2023-08-08T10:19:31;2.92;;;1.33;;
49840;SDS011;35738;49.890;5.930;2023-08-08T10:21:58;3.03;;;1.48;;
49840;SDS011;35738;49.890;5.930;2023-08-08T10:24:32;1.65;;;1.40;;
49840;SDS011;35738;49.890;5.930;2023-08-08T10:27:00;4.25;;;1.60;;
49840;SDS011;35738;49.890;5.930;2023-08-08T10:29:30;1.77;;;1.35;;
49840;SDS011;35738;49.890;5.930;2023-08-08T10:34:43;2.03;;;1.33;;
49840;SDS011;35738;49.890;5.930;2023-08-08T10:37:13;4.80;;;1.42;;
49840;SDS011;35738;49.890;5.930;2023-08-08T10:39:57;2.47;;;1.50;;
49840;SDS011;35738;49.890;5.930;2023-08-08T10:42:26;4.40;;;1.70;;
49840;SDS011;35738;49.890;5.930;2023-08-08T10:44:57;3.90;;;1.60;;
49840;SDS011;35738;49.890;5.930;2023-08-08T10:47:34;4.65;;;1.90;;
49840;SDS011;35738;49.890;5.930;2023-08-08T10:52:33;3.08;;;1.77;;
49840;SDS011;35738;49.890;5.930;2023-08-08T10:55:05;4.22;;;1.52;;
49840;SDS011;35738;49.890;5.930;2023-08-08T10:57:32;3.78;;;1.77;;
49840;SDS011;35738;49.890;5.930;2023-08-08T11:00:18;4.22;;;1.60;;
49840;SDS011;35738;49.890;5.930;2023-08-08T11:02:45;3.63;;;1.70;;
49840;SDS011;35738;49.890;5.930;2023-08-08T11:05:12;5.03;;;1.88;;
49840;SDS011;35738;49.890;5.930;2023-08-08T11:07:40;4.32;;;1.85;;
49840;SDS011;35738;49.890;5.930;2023-08-08T11:10:08;3.10;;;1.60;;
49840;SDS011;35738;49.890;5.930;2023-08-08T11:12:35;4.30;;;1.80;;
49840;SDS011;35738;49.890;5.930;2023-08-08T11:15:02;4.40;;;1.70;;
49840;SDS011;35738;49.890;5.930;2023-08-08T11:17:29;3.30;;;1.83;;
49840;SDS011;35738;49.890;5.930;2023-08-08T11:19:58;4.13;;;1.95;;
49840;SDS011;35738;49.890;5.930;2023-08-08T11:22:24;3.15;;;1.70;;
49840;SDS011;35738;49.890;5.930;2023-08-08T11:24:52;3.65;;;2.00;;
49840;SDS011;35738;49.890;5.930;2023-08-08T11:27:18;3.67;;;1.90;;
49840;SDS011;35738;49.890;5.930;2023-08-08T11:29:51;5.57;;;2.20;;
49840;SDS011;35738;49.890;5.930;2023-08-08T11:32:18;4.70;;;1.85;;
49840;SDS011;35738;49.890;5.930;2023-08-08T11:34:45;5.80;;;1.98;;
49840;SDS011;35738;49.890;5.930;2023-08-08T11:37:12;2.72;;;1.80;;
49840;SDS011;35738;49.890;5.930;2023-08-08T11:39:41;5.70;;;2.28;;
49840;SDS011;35738;49.890;5.930;2023-08-08T11:42:08;6.00;;;2.30;;
49840;SDS011;35738;49.890;5.930;2023-08-08T11:44:35;7.00;;;2.00;;
49840;SDS011;35738;49.890;5.930;2023-08-08T11:47:02;4.43;;;2.10;;
49840;SDS011;35738;49.890;5.930;2023-08-08T11:49:38;7.25;;;2.33;;
49840;SDS011;35738;49.890;5.930;2023-08-08T11:52:06;6.68;;;2.47;;
49840;SDS011;35738;49.890;5.930;2023-08-08T11:54:36;4.95;;;2.03;;
49840;SDS011;35738;49.890;5.930;2023-08-08T11:57:04;5.13;;;2.00;;
49840;SDS011;35738;49.890;5.930;2023-08-08T11:59:30;4.28;;;2.20;;
49840;SDS011;35738;49.890;5.930;2023-08-08T12:01:57;3.42;;;2.08;;
49840;SDS011;35738;49.890;5.930;2023-08-08T12:04:25;3.83;;;2.13;;
49840;SDS011;35738;49.890;5.930;2023-08-08T12:07:02;6.45;;;2.42;;
49840;SDS011;35738;49.890;5.930;2023-08-08T12:09:32;6.20;;;2.20;;
49840;SDS011;35738;49.890;5.930;2023-08-08T12:12:02;7.72;;;2.30;;
49840;SDS011;35738;49.890;5.930;2023-08-08T12:14:37;4.97;;;2.17;;
49840;SDS011;35738;49.890;5.930;2023-08-08T12:17:17;5.43;;;2.45;;
49840;SDS011;35738;49.890;5.930;2023-08-08T12:19:46;4.68;;;2.10;;
49840;SDS011;35738;49.890;5.930;2023-08-08T12:22:14;8.00;;;2.20;;
49840;SDS011;35738;49.890;5.930;2023-08-08T12:24:41;5.00;;;2.00;;
49840;SDS011;35738;49.890;5.930;2023-08-08T12:27:08;4.80;;;2.10;;
49840;SDS011;35738;49.890;5.930;2023-08-08T12:29:34;4.50;;;2.20;;
49840;SDS011;35738;49.890;5.930;2023-08-08T12:32:01;3.70;;;2.33;;
49840;SDS011;35738;49.890;5.930;2023-08-08T12:34:28;3.72;;;1.88;;
49840;SDS011;35738;49.890;5.930;2023-08-08T12:36:55;3.53;;;1.85;;
49840;SDS011;35738;49.890;5.930;2023-08-08T12:39:22;6.30;;;2.42;;
49840;SDS011;35738;49.890;5.930;2023-08-08T12:41:48;3.25;;;1.73;;
49840;SDS011;35738;49.890;5.930;2023-08-08T12:44:15;4.85;;;1.83;;
49840;SDS011;35738;49.890;5.930;2023-08-08T12:46:41;4.90;;;1.77;;
49840;SDS011;35738;49.890;5.930;2023-08-08T12:49:08;3.88;;;2.00;;
49840;SDS011;35738;49.890;5.930;2023-08-08T12:51:34;2.65;;;2.03;;
49840;SDS011;35738;49.890;5.930;2023-08-08T12:54:01;4.05;;;1.80;;
49840;SDS011;35738;49.890;5.930;2023-08-08T12:56:27;4.82;;;1.90;;
49840;SDS011;35738;49.890;5.930;2023-08-08T12:58:54;4.18;;;1.90;;
49840;SDS011;35738;49.890;5.930;2023-08-08T13:01:21;5.57;;;2.00;;
49840;SDS011;35738;49.890;5.930;2023-08-08T13:03:47;3.05;;;1.85;;
49840;SDS011;35738;49.890;5.930;2023-08-08T13:06:34;3.65;;;1.92;;
49840;SDS011;35738;49.890;5.930;2023-08-08T13:09:00;3.30;;;1.98;;
49840;SDS011;35738;49.890;5.930;2023-08-08T13:11:27;5.65;;;2.20;;
49840;SDS011;35738;49.890;5.930;2023-08-08T13:13:53;2.42;;;1.90;;
49840;SDS011;35738;49.890;5.930;2023-08-08T13:16:20;2.83;;;1.90;;
49840;SDS011;35738;49.890;5.930;2023-08-08T13:18:46;2.83;;;1.95;;
49840;SDS011;35738;49.890;5.930;2023-08-08T13:21:13;4.78;;;1.98;;
49840;SDS011;35738;49.890;5.930;2023-08-08T13:23:40;2.92;;;1.73;;
49840;SDS011;35738;49.890;5.930;2023-08-08T13:26:07;5.00;;;1.85;;
49840;SDS011;35738;49.890;5.930;2023-08-08T13:28:34;1.65;;;1.55;;
49840;SDS011;35738;49.890;5.930;2023-08-08T13:31:00;2.72;;;1.60;;
49840;SDS011;35738;49.890;5.930;2023-08-08T13:33:27;1.63;;;1.50;;
49840;SDS011;35738;49.890;5.930;2023-08-08T13:35:53;3.75;;;1.90;;
49840;SDS011;35738;49.890;5.930;2023-08-08T13:38:20;3.05;;;1.70;;
49840;SDS011;35738;49.890;5.930;2023-08-08T13:40:49;4.28;;;2.03;;
49840;SDS011;35738;49.890;5.930;2023-08-08T13:43:16;6.28;;;2.45;;
49840;SDS011;35738;49.890;5.930;2023-08-08T13:45:42;3.13;;;1.90;;
49840;SDS011;35738;49.890;5.930;2023-08-08T13:48:09;2.33;;;1.58;;
49840;SDS011;35738;49.890;5.930;2023-08-08T13:50:36;3.08;;;1.75;;
49840;SDS011;35738;49.890;5.930;2023-08-08T13:53:03;5.80;;;1.70;;
49840;SDS011;35738;49.890;5.930;2023-08-08T13:55:30;3.05;;;1.65;;
49840;SDS011;35738;49.890;5.930;2023-08-08T13:57:56;3.72;;;1.70;;
49840;SDS011;35738;49.890;5.930;2023-08-08T14:00:24;2.83;;;2.00;;
49840;SDS011;35738;49.890;5.930;2023-08-08T14:02:50;2.90;;;1.75;;
49840;SDS011;35738;49.890;5.930;2023-08-08T14:05:17;3.53;;;1.70;;
49840;SDS011;35738;49.890;5.930;2023-08-08T14:07:44;2.45;;;1.63;;
49840;SDS011;35738;49.890;5.930;2023-08-08T14:10:10;4.97;;;2.00;;
49840;SDS011;35738;49.890;5.930;2023-08-08T14:12:37;3.80;;;1.77;;
49840;SDS011;35738;49.890;5.930;2023-08-08T14:15:04;3.50;;;1.73;;
49840;SDS011;35738;49.890;5.930;2023-08-08T14:17:31;6.13;;;2.20;;
49840;SDS011;35738;49.890;5.930;2023-08-08T14:19:58;3.28;;;1.80;;
49840;SDS011;35738;49.890;5.930;2023-08-08T14:22:24;3.50;;;1.77;;
49840;SDS011;35738;49.890;5.930;2023-08-08T14:24:51;2.28;;;1.52;;
49840;SDS011;35738;49.890;5.930;2023-08-08T14:27:17;2.53;;;1.60;;
49840;SDS011;35738;49.890;5.930;2023-08-08T14:29:44;2.40;;;1.60;;
49840;SDS011;35738;49.890;5.930;2023-08-08T14:32:10;3.03;;;1.83;;
49840;SDS011;35738;49.890;5.930;2023-08-08T14:34:37;4.57;;;1.88;;
49840;SDS011;35738;49.890;5.930;2023-08-08T14:37:05;3.83;;;1.80;;
49840;SDS011;35738;49.890;5.930;2023-08-08T14:39:32;2.33;;;1.88;;
49840;SDS011;35738;49.890;5.930;2023-08-08T14:41:58;1.90;;;1.75;;
49840;SDS011;35738;49.890;5.930;2023-08-08T14:44:26;3.03;;;1.73;;
49840;SDS011;35738;49.890;5.930;2023-08-08T14:46:53;2.63;;;1.63;;
49840;SDS011;35738;49.890;5.930;2023-08-08T14:49:19;1.88;;;1.55;;
49840;SDS011;35738;49.890;5.930;2023-08-08T14:51:46;3.13;;;1.58;;
49840;SDS011;35738;49.890;5.930;2023-08-08T14:54:12;2.33;;;1.70;;
49840;SDS011;35738;49.890;5.930;2023-08-08T14:56:39;2.65;;;1.58;;
49840;SDS011;35738;49.890;5.930;2023-08-08T14:59:06;3.25;;;1.90;;